Time;durP1;ratioP1;P1;durP2;ratioP2;P2;SDS_P1;SDS_P2;PMS_P1;PMS_P2;Temp;Humidity;BMP_temperature;BMP_pressure;BME280_temperature;BME280_humidity;BME280_pressure;Samples;Min_cycle;Max_cycle;Signal;HPM_P1;HPM_P2
2023/12/22 00:00:47;;;;;;;0.00;0.00;;;;;;;;;;6217975;23;20016;-86
2023/12/22 00:03:14;;;;;;;0.00;0.00;;;;;;;;;;6243381;23;20004;-87
2023/12/22 00:05:39;;;;;;;0.00;0.00;;;;;;;;;;6243278;23;20129;-88
2023/12/22 00:08:05;;;;;;;0.00;0.00;;;;;;;;;;6243252;23;20422;-87
2023/12/22 00:10:31;;;;;;;0.00;0.00;;;;;;;;;;6243219;23;20019;-87
2023/12/22 00:12:56;;;;;;;0.00;0.00;;;;;;;;;;6217994;23;20004;-87
2023/12/22 00:15:22;;;;;;;0.00;0.00;;;;;;;;;;6218081;23;20000;-87
2023/12/22 00:17:47;;;;;;;0.00;0.00;;;;;;;;;;6243103;23;20004;-86
2023/12/22 00:20:14;;;;;;;0.00;0.00;;;;;;;;;;6244572;22;20347;-87
2023/12/22 00:22:39;;;;;;;0.00;0.00;;;;;;;;;;6244447;22;20070;-87
2023/12/22 00:25:07;;;;;;;0.00;0.00;;;;;;;;;;6241042;23;20525;-87
2023/12/22 00:27:32;;;;;;;0.00;0.00;;;;;;;;;;6243118;23;20423;-87
2023/12/22 00:29:58;;;;;;;0.00;0.00;;;;;;;;;;6243054;23;20019;-87
2023/12/22 00:32:23;;;;;;;0.00;0.00;;;;;;;;;;6243757;22;20007;-87
2023/12/22 00:34:49;;;;;;;0.00;0.00;;;;;;;;;;6242957;23;20320;-88
2023/12/22 00:37:14;;;;;;;0.00;0.00;;;;;;;;;;6244230;22;20030;-87
2023/12/22 00:39:40;;;;;;;0.00;0.00;;;;;;;;;;6242841;23;19996;-87
2023/12/22 00:42:05;;;;;;;0.00;0.00;;;;;;;;;;6242841;23;20004;-87
2023/12/22 00:44:31;;;;;;;0.00;0.00;;;;;;;;;;6244471;22;20010;-86
2023/12/22 00:46:56;;;;;;;0.00;0.00;;;;;;;;;;6217431;23;20431;-86
2023/12/22 00:49:23;;;;;;;0.00;0.00;;;;;;;;;;6242741;23;20070;-87
2023/12/22 00:51:49;;;;;;;0.00;0.00;;;;;;;;;;6242249;23;20121;-87
2023/12/22 00:54:14;;;;;;;0.00;0.00;;;;;;;;;;6242795;23;20097;-87
2023/12/22 00:56:40;;;;;;;0.00;0.00;;;;;;;;;;6244266;22;20006;-87
2023/12/22 00:59:05;;;;;;;0.00;0.00;;;;;;;;;;6217542;23;20083;-87
2023/12/22 01:01:31;;;;;;;0.00;0.00;;;;;;;;;;6242488;23;20041;-87
2023/12/22 01:03:57;;;;;;;0.00;0.00;;;;;;;;;;6244136;22;20012;-87
2023/12/22 01:06:22;;;;;;;0.00;0.00;;;;;;;;;;6242636;23;20446;-87
2023/12/22 01:08:49;;;;;;;0.00;0.00;;;;;;;;;;6192652;23;20015;-86
2023/12/22 01:11:16;;;;;;;0.00;0.00;;;;;;;;;;6242878;23;20008;-87
2023/12/22 01:13:42;;;;;;;0.00;0.00;;;;;;;;;;6242622;23;20038;-87
2023/12/22 01:16:08;;;;;;;0.00;0.00;;;;;;;;;;6217555;23;20399;-87
2023/12/22 01:18:34;;;;;;;0.00;0.00;;;;;;;;;;6218200;23;20000;-87
2023/12/22 01:20:59;;;;;;;0.00;0.00;;;;;;;;;;6218071;23;20019;-87
2023/12/22 01:23:25;;;;;;;0.00;0.00;;;;;;;;;;6218365;23;20005;-87
2023/12/22 01:25:51;;;;;;;0.00;0.00;;;;;;;;;;6241390;23;20010;-87
2023/12/22 01:28:17;;;;;;;0.00;0.00;;;;;;;;;;6218450;23;20084;-87
2023/12/22 01:30:42;;;;;;;0.00;0.00;;;;;;;;;;6218577;23;20004;-87
2023/12/22 01:33:08;;;;;;;0.00;0.00;;;;;;;;;;6248601;22;20004;-87
2023/12/22 01:35:33;;;;;;;0.00;0.00;;;;;;;;;;6229972;23;19997;-87
2023/12/22 01:37:59;;;;;;;0.00;0.00;;;;;;;;;;6227896;23;20024;-87
2023/12/22 01:40:24;;;;;;;0.00;0.00;;;;;;;;;;6254112;23;20004;-87
2023/12/22 01:42:50;;;;;;;0.00;0.00;;;;;;;;;;6243619;22;20004;-85
2023/12/22 01:45:16;;;;;;;0.00;0.00;;;;;;;;;;6246277;22;20000;-86
2023/12/22 01:47:43;;;;;;;0.00;0.00;;;;;;;;;;6243674;22;19996;-86
2023/12/22 01:50:10;;;;;;;0.00;0.00;;;;;;;;;;6227957;23;20004;-86
2023/12/22 01:52:37;;;;;;;0.00;0.00;;;;;;;;;;6242694;23;20000;-86
2023/12/22 01:55:04;;;;;;;0.00;0.00;;;;;;;;;;6242316;23;20007;-86
2023/12/22 01:57:29;;;;;;;0.00;0.00;;;;;;;;;;6244212;22;19996;-86
2023/12/22 01:59:55;;;;;;;0.00;0.00;;;;;;;;;;6242345;23;20087;-87
2023/12/22 02:02:20;;;;;;;0.00;0.00;;;;;;;;;;6193565;23;20087;-86
2023/12/22 02:04:46;;;;;;;0.00;0.00;;;;;;;;;;6191669;23;20008;-86
2023/12/22 02:07:12;;;;;;;0.00;0.00;;;;;;;;;;6192277;23;20008;-86
2023/12/22 02:09:37;;;;;;;0.00;0.00;;;;;;;;;;6192456;23;20398;-86
2023/12/22 02:12:03;;;;;;;0.00;0.00;;;;;;;;;;6220174;23;20075;-87
2023/12/22 02:14:29;;;;;;;0.00;0.00;;;;;;;;;;6174807;23;20008;-86
2023/12/22 02:17:00;;;;;;;0.00;0.00;;;;;;;;;;6192724;23;20012;-85
2023/12/22 02:19:42;;;;;;;0.00;0.00;;;;;;;;;;6195659;23;20007;-86
2023/12/22 02:22:09;;;;;;;0.00;0.00;;;;;;;;;;6196901;23;20007;-85
2023/12/22 02:24:34;;;;;;;0.00;0.00;;;;;;;;;;6216568;23;20004;-86
2023/12/22 02:27:27;;;;;;;0.00;0.00;;;;;;;;;;6216958;23;20431;-86
2023/12/22 02:30:33;;;;;;;0.00;0.00;;;;;;;;;;6220486;23;20058;-86
2023/12/22 02:33:00;;;;;;;0.00;0.00;;;;;;;;;;6164496;23;20012;-87
2023/12/22 02:35:26;;;;;;;0.00;0.00;;;;;;;;;;6215493;23;20443;-86
2023/12/22 02:37:51;;;;;;;0.00;0.00;;;;;;;;;;6161462;23;20015;-86
2023/12/22 02:40:17;;;;;;;0.00;0.00;;;;;;;;;;6188215;23;20012;-86
2023/12/22 02:42:42;;;;;;;0.00;0.00;;;;;;;;;;6191718;23;20407;-86
2023/12/22 02:45:13;;;;;;;0.00;0.00;;;;;;;;;;6191664;23;20004;-85
2023/12/22 02:47:39;;;;;;;0.00;0.00;;;;;;;;;;6243219;23;20004;-85
2023/12/22 02:50:15;;;;;;;0.00;0.00;;;;;;;;;;6243329;23;20133;-87
2023/12/22 02:52:40;;;;;;;0.00;0.00;;;;;;;;;;6216505;23;20079;-86
2023/12/22 02:55:06;;;;;;;0.00;0.00;;;;;;;;;;6191529;23;20005;-86
2023/12/22 02:57:31;;;;;;;0.00;0.00;;;;;;;;;;6216600;23;20066;-85
2023/12/22 02:59:57;;;;;;;0.00;0.00;;;;;;;;;;6193616;23;20004;-86
2023/12/22 03:02:23;;;;;;;0.00;0.00;;;;;;;;;;6203618;23;20328;-86
2023/12/22 03:04:48;;;;;;;0.00;0.00;;;;;;;;;;6168157;23;20000;-86
2023/12/22 03:07:14;;;;;;;0.00;0.00;;;;;;;;;;6218758;23;20079;-85
2023/12/22 03:09:40;;;;;;;0.00;0.00;;;;;;;;;;6233167;23;20030;-86
2023/12/22 03:12:07;;;;;;;0.00;0.00;;;;;;;;;;6218402;23;20451;-86
2023/12/22 03:14:33;;;;;;;0.00;0.00;;;;;;;;;;6218473;23;20004;-86
2023/12/22 03:17:05;;;;;;;0.00;0.00;;;;;;;;;;6221778;23;20010;-85
2023/12/22 03:19:31;;;;;;;0.00;0.00;;;;;;;;;;6202728;23;20016;-85
2023/12/22 03:21:57;;;;;;;0.00;0.00;;;;;;;;;;6198908;23;20005;-86
2023/12/22 03:24:28;;;;;;;0.00;0.00;;;;;;;;;;6208541;23;20004;-86
2023/12/22 03:26:54;;;;;;;0.00;0.00;;;;;;;;;;6227447;23;20004;-86
2023/12/22 03:29:19;;;;;;;0.00;0.00;;;;;;;;;;6176418;23;20072;-87
2023/12/22 03:31:45;;;;;;;0.00;0.00;;;;;;;;;;6239398;23;20004;-86
2023/12/22 03:34:11;;;;;;;0.00;0.00;;;;;;;;;;6223621;23;20000;-87
2023/12/22 03:36:36;;;;;;;0.00;0.00;;;;;;;;;;6193262;23;20008;-86
2023/12/22 03:39:02;;;;;;;0.00;0.00;;;;;;;;;;6218405;23;20344;-86
2023/12/22 03:41:29;;;;;;;0.00;0.00;;;;;;;;;;6244912;23;20008;-86
2023/12/22 03:43:55;;;;;;;0.00;0.00;;;;;;;;;;6187974;23;20007;-86
2023/12/22 03:46:20;;;;;;;0.00;0.00;;;;;;;;;;6188934;23;20005;-86
2023/12/22 03:48:46;;;;;;;0.00;0.00;;;;;;;;;;6218480;23;20499;-86
2023/12/22 03:51:13;;;;;;;0.00;0.00;;;;;;;;;;6192930;23;20007;-86
2023/12/22 03:53:38;;;;;;;0.00;0.00;;;;;;;;;;6218682;23;20144;-86
2023/12/22 03:56:04;;;;;;;0.00;0.00;;;;;;;;;;6218039;23;20035;-86
2023/12/22 03:58:30;;;;;;;0.00;0.00;;;;;;;;;;6244955;23;20027;-87
2023/12/22 04:00:56;;;;;;;0.00;0.00;;;;;;;;;;6251117;22;20081;-86
2023/12/22 04:03:22;;;;;;;0.00;0.00;;;;;;;;;;6248419;22;20027;-85
2023/12/22 04:05:47;;;;;;;0.00;0.00;;;;;;;;;;6251601;22;20011;-85
2023/12/22 04:08:13;;;;;;;0.00;0.00;;;;;;;;;;6286032;22;20003;-86
2023/12/22 04:10:38;;;;;;;0.00;0.00;;;;;;;;;;6250452;22;20006;-84
2023/12/22 04:13:04;;;;;;;0.00;0.00;;;;;;;;;;6250768;22;20090;-85
2023/12/22 04:15:29;;;;;;;0.00;0.00;;;;;;;;;;6198860;22;20003;-86
2023/12/22 04:17:55;;;;;;;0.00;0.00;;;;;;;;;;6198505;22;20003;-86
2023/12/22 04:20:20;;;;;;;0.00;0.00;;;;;;;;;;6197696;22;20442;-85
2023/12/22 04:22:46;;;;;;;0.00;0.00;;;;;;;;;;6222949;22;20007;-86
2023/12/22 04:25:11;;;;;;;0.00;0.00;;;;;;;;;;6275238;22;20053;-85
2023/12/22 04:27:37;;;;;;;0.00;0.00;;;;;;;;;;6248474;22;20403;-86
2023/12/22 04:30:02;;;;;;;0.00;0.00;;;;;;;;;;6275021;22;20008;-86
2023/12/22 04:32:28;;;;;;;0.00;0.00;;;;;;;;;;6282851;22;20006;-85
2023/12/22 04:34:53;;;;;;;0.00;0.00;;;;;;;;;;6252425;22;20039;-84
2023/12/22 04:37:19;;;;;;;0.00;0.00;;;;;;;;;;6252529;22;19995;-85
2023/12/22 04:39:44;;;;;;;0.00;0.00;;;;;;;;;;6303772;22;20644;-85
2023/12/22 04:42:10;;;;;;;0.00;0.00;;;;;;;;;;6304086;22;19999;-85
2023/12/22 04:44:36;;;;;;;0.00;0.00;;;;;;;;;;6303795;22;20018;-86
2023/12/22 04:47:01;;;;;;;0.00;0.00;;;;;;;;;;6277664;22;19988;-85
2023/12/22 04:49:27;;;;;;;0.00;0.00;;;;;;;;;;6277622;22;19996;-85
2023/12/22 04:51:52;;;;;;;0.00;0.00;;;;;;;;;;6253566;22;20010;-86
2023/12/22 04:54:17;;;;;;;0.00;0.00;;;;;;;;;;6247880;22;19996;-85
2023/12/22 04:56:43;;;;;;;0.00;0.00;;;;;;;;;;6247982;22;20000;-86
2023/12/22 04:59:09;;;;;;;0.00;0.00;;;;;;;;;;6223128;22;20423;-86
2023/12/22 05:01:34;;;;;;;0.00;0.00;;;;;;;;;;6219657;22;20090;-86
2023/12/22 05:04:01;;;;;;;0.00;0.00;;;;;;;;;;6274553;22;20004;-86
2023/12/22 05:06:28;;;;;;;0.00;0.00;;;;;;;;;;6248206;22;20037;-86
2023/12/22 05:08:54;;;;;;;0.00;0.00;;;;;;;;;;6248085;22;20000;-85
2023/12/22 05:11:20;;;;;;;0.00;0.00;;;;;;;;;;6247628;22;20458;-86
2023/12/22 05:13:45;;;;;;;0.00;0.00;;;;;;;;;;6274355;22;20000;-86
2023/12/22 05:16:11;;;;;;;0.00;0.00;;;;;;;;;;6245602;22;20004;-84
2023/12/22 05:18:36;;;;;;;0.00;0.00;;;;;;;;;;6247375;22;20470;-85
2023/12/22 05:21:02;;;;;;;0.00;0.00;;;;;;;;;;6247297;22;20077;-86
2023/12/22 05:23:28;;;;;;;0.00;0.00;;;;;;;;;;6247741;22;20000;-86
2023/12/22 05:25:53;;;;;;;0.00;0.00;;;;;;;;;;6247320;22;20057;-86
2023/12/22 05:28:19;;;;;;;0.00;0.00;;;;;;;;;;6247179;22;20022;-86
2023/12/22 05:30:44;;;;;;;0.00;0.00;;;;;;;;;;6247604;22;20631;-86
2023/12/22 05:33:10;;;;;;;0.00;0.00;;;;;;;;;;6222169;22;20003;-86
2023/12/22 05:35:36;;;;;;;0.00;0.00;;;;;;;;;;6222478;22;20023;-86
2023/12/22 05:38:01;;;;;;;0.00;0.00;;;;;;;;;;6274852;22;20013;-85
2023/12/22 05:40:27;;;;;;;0.00;0.00;;;;;;;;;;6221684;22;20000;-84
2023/12/22 05:42:52;;;;;;;0.00;0.00;;;;;;;;;;6274161;22;20007;-81
2023/12/22 05:45:18;;;;;;;0.00;0.00;;;;;;;;;;6246550;22;20007;-77
2023/12/22 05:47:44;;;;;;;0.00;0.00;;;;;;;;;;6273265;22;20280;-77
2023/12/22 05:50:10;;;;;;;0.00;0.00;;;;;;;;;;6273511;22;20007;-76
2023/12/22 05:52:36;;;;;;;0.00;0.00;;;;;;;;;;6273513;22;19996;-74
2023/12/22 05:55:02;;;;;;;0.00;0.00;;;;;;;;;;6272849;22;20010;-77
2023/12/22 05:57:29;;;;;;;0.00;0.00;;;;;;;;;;6270228;22;20061;-74
2023/12/22 05:59:55;;;;;;;0.00;0.00;;;;;;;;;;6241853;22;20078;-77
2023/12/22 06:02:21;;;;;;;0.00;0.00;;;;;;;;;;6239323;22;20298;-76
2023/12/22 06:04:49;;;;;;;0.00;0.00;;;;;;;;;;6271447;22;20113;-88
2023/12/22 06:07:24;;;;;;;0.00;0.00;;;;;;;;;;6219840;22;20007;-88
2023/12/22 06:09:50;;;;;;;0.00;0.00;;;;;;;;;;6219044;22;20295;-92
2023/12/22 06:12:15;;;;;;;0.00;0.00;;;;;;;;;;6243247;22;20087;-85
2023/12/22 06:14:44;;;;;;;0.00;0.00;;;;;;;;;;6218795;22;20000;-85
2023/12/22 06:17:10;;;;;;;0.00;0.00;;;;;;;;;;6219348;22;20004;-85
2023/12/22 06:19:43;;;;;;;0.00;0.00;;;;;;;;;;6192265;22;20094;-85
2023/12/22 06:22:08;;;;;;;0.00;0.00;;;;;;;;;;6275364;22;19999;-85
2023/12/22 06:24:37;;;;;;;0.00;0.00;;;;;;;;;;6242679;22;20521;-84
2023/12/22 06:27:02;;;;;;;0.00;0.00;;;;;;;;;;6242530;22;20012;-86
2023/12/22 06:29:30;;;;;;;0.00;0.00;;;;;;;;;;6218947;22;20008;-86
2023/12/22 06:31:56;;;;;;;0.00;0.00;;;;;;;;;;6270368;22;20427;-82
2023/12/22 06:34:22;;;;;;;0.00;0.00;;;;;;;;;;6244758;22;20014;-85
2023/12/22 06:36:47;;;;;;;0.00;0.00;;;;;;;;;;6245414;22;20038;-86
2023/12/22 06:39:13;;;;;;;0.00;0.00;;;;;;;;;;6244584;22;20389;-86
2023/12/22 06:41:41;;;;;;;0.00;0.00;;;;;;;;;;6271444;22;20007;-84
2023/12/22 06:44:07;;;;;;;0.00;0.00;;;;;;;;;;6272733;22;20031;-84
2023/12/22 06:46:36;;;;;;;0.00;0.00;;;;;;;;;;6218730;22;20011;-85
2023/12/22 06:49:01;;;;;;;0.00;0.00;;;;;;;;;;6271114;22;20004;-86
2023/12/22 06:51:30;;;;;;;0.00;0.00;;;;;;;;;;6244432;22;20026;-86
2023/12/22 06:53:56;;;;;;;0.00;0.00;;;;;;;;;;6221042;22;20019;-85
2023/12/22 06:56:25;;;;;;;0.00;0.00;;;;;;;;;;6242349;22;20554;-86
2023/12/22 06:59:16;;;;;;;0.00;0.00;;;;;;;;;;6249809;22;20052;-83
2023/12/22 07:01:42;;;;;;;0.00;0.00;;;;;;;;;;6271773;22;20363;-85
2023/12/22 07:04:08;;;;;;;0.00;0.00;;;;;;;;;;6256173;22;20011;-85
2023/12/22 07:06:34;;;;;;;0.00;0.00;;;;;;;;;;6281548;22;20402;-83
2023/12/22 07:09:11;;;;;;;0.00;0.00;;;;;;;;;;6281761;22;20011;-86
2023/12/22 07:11:38;;;;;;;0.00;0.00;;;;;;;;;;6279170;22;20008;-87
2023/12/22 07:14:04;;;;;;;0.00;0.00;;;;;;;;;;6228004;22;20034;-84
2023/12/22 07:16:30;;;;;;;0.00;0.00;;;;;;;;;;6254964;22;20004;-85
2023/12/22 07:18:58;;;;;;;0.00;0.00;;;;;;;;;;6250234;22;20019;-87
2023/12/22 07:21:27;;;;;;;0.00;0.00;;;;;;;;;;6258752;22;20008;-86
2023/12/22 07:23:52;;;;;;;0.00;0.00;;;;;;;;;;6250709;22;20338;-86
2023/12/22 07:26:18;;;;;;;0.00;0.00;;;;;;;;;;6281840;22;20016;-86
2023/12/22 07:28:44;;;;;;;0.00;0.00;;;;;;;;;;6202101;22;20066;-90
2023/12/22 07:31:09;;;;;;;0.00;0.00;;;;;;;;;;6225038;22;20061;-92
2023/12/22 07:33:39;;;;;;;0.00;0.00;;;;;;;;;;6228489;22;20067;-90
2023/12/22 07:36:05;;;;;;;0.00;0.00;;;;;;;;;;6199511;22;20403;-87
2023/12/22 07:38:40;;;;;;;0.00;0.00;;;;;;;;;;6197402;22;20061;-84
2023/12/22 07:41:06;;;;;;;0.00;0.00;;;;;;;;;;6275128;22;20000;-86
2023/12/22 07:43:35;;;;;;;0.00;0.00;;;;;;;;;;6250463;22;20087;-83
2023/12/22 07:46:00;;;;;;;0.00;0.00;;;;;;;;;;6222616;22;20003;-87
2023/12/22 07:48:26;;;;;;;0.00;0.00;;;;;;;;;;6235283;22;20049;-88
2023/12/22 07:50:52;;;;;;;0.00;0.00;;;;;;;;;;6255100;22;20381;-89
2023/12/22 07:56:10;;;;;;;0.00;0.00;;;;;;;;;;6272380;22;19915;-83
2023/12/22 07:58:53;;;;;;;0.00;0.00;;;;;;;;;;6270540;22;20083;-79
2023/12/22 08:01:18;;;;;;;0.00;0.00;;;;;;;;;;6270472;22;20007;-79
2023/12/22 08:03:56;;;;;;;0.00;0.00;;;;;;;;;;6245604;22;20000;-85
2023/12/22 08:06:27;;;;;;;0.00;0.00;;;;;;;;;;6245855;22;20082;-88
2023/12/22 08:09:09;;;;;;;0.00;0.00;;;;;;;;;;6246923;22;20003;-87
2023/12/22 08:11:34;;;;;;;0.00;0.00;;;;;;;;;;6195292;22;20586;-86
2023/12/22 08:14:00;;;;;;;0.00;0.00;;;;;;;;;;6244528;22;20018;-85
2023/12/22 08:16:25;;;;;;;0.00;0.00;;;;;;;;;;6254178;22;20007;-85
2023/12/22 08:21:28;;;;;;;0.00;0.00;;;;;;;;;;6281799;22;20466;-85
2023/12/22 08:23:57;;;;;;;0.00;0.00;;;;;;;;;;6245143;22;20004;-85
2023/12/22 08:26:22;;;;;;;0.00;0.00;;;;;;;;;;6269384;22;20007;-86
2023/12/22 08:34:17;;;;;;;0.00;0.00;;;;;;;;;;6211047;23;20016;-87
2023/12/22 08:36:42;;;;;;;0.00;0.00;;;;;;;;;;6136027;23;20083;-89
2023/12/22 08:39:29;;;;;;;0.00;0.00;;;;;;;;;;6160434;23;20012;-87
2023/12/22 08:41:54;;;;;;;0.00;0.00;;;;;;;;;;6171425;23;20005;-86
2023/12/22 08:44:20;;;;;;;0.00;0.00;;;;;;;;;;6181890;23;20012;-85
2023/12/22 08:46:46;;;;;;;0.00;0.00;;;;;;;;;;6211138;23;20417;-90
2023/12/22 08:49:11;;;;;;;0.00;0.00;;;;;;;;;;6156760;23;20066;-90
2023/12/22 08:51:45;;;;;;;0.00;0.00;;;;;;;;;;6159251;23;20011;-85
2023/12/22 08:54:46;;;;;;;0.00;0.00;;;;;;;;;;6186740;23;20009;-86
2023/12/22 08:57:12;;;;;;;0.00;0.00;;;;;;;;;;6112098;23;20060;-85
2023/12/22 08:59:37;;;;;;;0.00;0.00;;;;;;;;;;6187030;23;20005;-86
2023/12/22 09:02:06;;;;;;;0.00;0.00;;;;;;;;;;6133338;23;20009;-88
2023/12/22 09:04:33;;;;;;;0.00;0.00;;;;;;;;;;6158490;23;20004;-87
2023/12/22 09:07:09;;;;;;;0.00;0.00;;;;;;;;;;6208212;23;20023;-87
2023/12/22 09:09:40;;;;;;;0.00;0.00;;;;;;;;;;6181434;23;20024;-89
2023/12/22 09:12:11;;;;;;;0.00;0.00;;;;;;;;;;6134953;23;20001;-88
2023/12/22 09:14:37;;;;;;;0.00;0.00;;;;;;;;;;6182141;23;20005;-93
2023/12/22 09:17:06;;;;;;;0.00;0.00;;;;;;;;;;6184807;23;20004;-91
2023/12/22 09:19:38;;;;;;;0.00;0.00;;;;;;;;;;6130698;23;20360;-90
2023/12/22 09:22:03;;;;;;;0.00;0.00;;;;;;;;;;6211567;23;20008;-90
2023/12/22 09:24:29;;;;;;;0.00;0.00;;;;;;;;;;6161537;23;20474;-90
2023/12/22 09:27:02;;;;;;;0.00;0.00;;;;;;;;;;6158308;23;20008;-88
2023/12/22 09:29:35;;;;;;;0.00;0.00;;;;;;;;;;6160262;23;20050;-84
2023/12/22 09:32:01;;;;;;;0.00;0.00;;;;;;;;;;6185647;22;20084;-81
2023/12/22 09:34:31;;;;;;;0.00;0.00;;;;;;;;;;6238473;23;20012;-82
2023/12/22 09:36:56;;;;;;;0.00;0.00;;;;;;;;;;6237690;23;20086;-82
2023/12/22 09:39:22;;;;;;;0.00;0.00;;;;;;;;;;6211947;23;20420;-82
2023/12/22 09:41:48;;;;;;;0.00;0.00;;;;;;;;;;6214692;23;20094;-89
2023/12/22 09:44:18;;;;;;;0.00;0.00;;;;;;;;;;6189142;23;20038;-88
2023/12/22 09:46:44;;;;;;;0.00;0.00;;;;;;;;;;6165347;23;19996;-89
2023/12/22 09:49:09;;;;;;;0.00;0.00;;;;;;;;;;6190035;23;20340;-89
2023/12/22 09:51:35;;;;;;;0.00;0.00;;;;;;;;;;6213532;23;20027;-87
2023/12/22 09:54:03;;;;;;;0.00;0.00;;;;;;;;;;6165071;23;20028;-88
2023/12/22 09:56:29;;;;;;;0.00;0.00;;;;;;;;;;6215754;23;20000;-90
2023/12/22 09:58:54;;;;;;;0.00;0.00;;;;;;;;;;6190696;23;20000;-88
2023/12/22 10:01:22;;;;;;;0.00;0.00;;;;;;;;;;6191945;23;20012;-89
2023/12/22 10:03:48;;;;;;;0.00;0.00;;;;;;;;;;6193019;23;20004;-88
2023/12/22 10:06:13;;;;;;;0.00;0.00;;;;;;;;;;6191894;23;19997;-88
2023/12/22 10:08:39;;;;;;;0.00;0.00;;;;;;;;;;6192261;23;20095;-87
2023/12/22 10:11:05;;;;;;;0.00;0.00;;;;;;;;;;6217176;23;20000;-88
2023/12/22 10:13:31;;;;;;;0.00;0.00;;;;;;;;;;6167590;23;20015;-91
2023/12/22 10:15:57;;;;;;;0.00;0.00;;;;;;;;;;6194561;23;20186;-89
2023/12/22 10:18:23;;;;;;;0.00;0.00;;;;;;;;;;6191710;23;20014;-86
2023/12/22 10:20:49;;;;;;;0.00;0.00;;;;;;;;;;6167373;23;20040;-86
2023/12/22 10:23:15;;;;;;;0.00;0.00;;;;;;;;;;6256563;23;20000;-86
2023/12/22 10:25:40;;;;;;;0.00;0.00;;;;;;;;;;6205453;23;20008;-84
2023/12/22 10:28:06;;;;;;;0.00;0.00;;;;;;;;;;6208493;23;20019;-86
2023/12/22 10:30:32;;;;;;;0.00;0.00;;;;;;;;;;6195720;23;20051;-87
2023/12/22 10:32:57;;;;;;;0.00;0.00;;;;;;;;;;6216580;23;20111;-85
2023/12/22 10:35:23;;;;;;;0.00;0.00;;;;;;;;;;6215871;23;20505;-86
2023/12/22 10:37:52;;;;;;;0.00;0.00;;;;;;;;;;6215393;23;20004;-85
2023/12/22 10:40:18;;;;;;;0.00;0.00;;;;;;;;;;6191631;23;20095;-88
2023/12/22 10:42:43;;;;;;;0.00;0.00;;;;;;;;;;6214716;23;20008;-86
2023/12/22 10:45:09;;;;;;;0.00;0.00;;;;;;;;;;6241455;23;20004;-87
2023/12/22 10:47:34;;;;;;;0.00;0.00;;;;;;;;;;6215527;23;20001;-86
2023/12/22 10:50:06;;;;;;;0.00;0.00;;;;;;;;;;6215867;23;20008;-86
2023/12/22 10:52:32;;;;;;;0.00;0.00;;;;;;;;;;6241880;23;20062;-86
2023/12/22 10:54:58;;;;;;;0.00;0.00;;;;;;;;;;6215330;23;20001;-86
2023/12/22 10:57:24;;;;;;;0.00;0.00;;;;;;;;;;6216253;23;20004;-85
2023/12/22 10:59:55;;;;;;;0.00;0.00;;;;;;;;;;6243318;23;20040;-86
2023/12/22 11:02:20;;;;;;;0.00;0.00;;;;;;;;;;6193684;23;20004;-90
2023/12/22 11:04:57;;;;;;;0.00;0.00;;;;;;;;;;6216578;23;20332;-86
2023/12/22 11:07:23;;;;;;;0.00;0.00;;;;;;;;;;6243557;23;20008;-86
2023/12/22 11:09:50;;;;;;;0.00;0.00;;;;;;;;;;6242760;23;20335;-86
2023/12/22 11:12:15;;;;;;;0.00;0.00;;;;;;;;;;6191863;23;20004;-86
2023/12/22 11:14:41;;;;;;;0.00;0.00;;;;;;;;;;6215896;23;20442;-87
2023/12/22 11:17:06;;;;;;;0.00;0.00;;;;;;;;;;6216195;23;20008;-87
2023/12/22 11:19:32;;;;;;;0.00;0.00;;;;;;;;;;6217241;23;19996;-87
2023/12/22 11:21:58;;;;;;;0.00;0.00;;;;;;;;;;6192425;23;20062;-87
2023/12/22 11:24:23;;;;;;;0.00;0.00;;;;;;;;;;6245195;23;19996;-88
2023/12/22 11:26:49;;;;;;;0.00;0.00;;;;;;;;;;6168736;23;20010;-87
2023/12/22 11:29:15;;;;;;;0.00;0.00;;;;;;;;;;6218208;23;20371;-87
2023/12/22 11:31:41;;;;;;;0.00;0.00;;;;;;;;;;6168653;23;20086;-87
2023/12/22 11:34:06;;;;;;;0.00;0.00;;;;;;;;;;6168870;23;20078;-88
2023/12/22 11:36:32;;;;;;;0.00;0.00;;;;;;;;;;6168906;23;20015;-87
2023/12/22 11:38:57;;;;;;;0.00;0.00;;;;;;;;;;6193369;23;19996;-85
2023/12/22 11:41:27;;;;;;;0.00;0.00;;;;;;;;;;6218728;23;20039;-87
2023/12/22 11:43:52;;;;;;;0.00;0.00;;;;;;;;;;6170362;23;20004;-87
2023/12/22 11:46:18;;;;;;;0.00;0.00;;;;;;;;;;6246863;23;20062;-87
2023/12/22 11:48:53;;;;;;;0.00;0.00;;;;;;;;;;6218309;23;20318;-89
2023/12/22 11:51:18;;;;;;;0.00;0.00;;;;;;;;;;6193004;23;19996;-87
2023/12/22 11:53:44;;;;;;;0.00;0.00;;;;;;;;;;6192934;23;20114;-77
2023/12/22 11:56:10;;;;;;;0.00;0.00;;;;;;;;;;6189918;23;20344;-79
2023/12/22 11:58:53;;;;;;;0.00;0.00;;;;;;;;;;6244114;23;20008;-80
2023/12/22 12:01:20;;;;;;;0.00;0.00;;;;;;;;;;6219370;23;20000;-80
2023/12/22 12:03:51;;;;;;;0.00;0.00;;;;;;;;;;6192464;23;20354;-85
2023/12/22 12:06:25;;;;;;;0.00;0.00;;;;;;;;;;6218068;23;20000;-86
2023/12/22 12:08:53;;;;;;;0.00;0.00;;;;;;;;;;6219010;23;20004;-86
2023/12/22 12:11:19;;;;;;;0.00;0.00;;;;;;;;;;6193774;23;20019;-88
2023/12/22 12:13:45;;;;;;;0.00;0.00;;;;;;;;;;6167653;23;20008;-87
2023/12/22 12:16:11;;;;;;;0.00;0.00;;;;;;;;;;6193003;23;20039;-89
2023/12/22 12:18:38;;;;;;;0.00;0.00;;;;;;;;;;6244232;23;20000;-87
2023/12/22 12:21:03;;;;;;;0.00;0.00;;;;;;;;;;6217523;23;20008;-84
2023/12/22 12:23:29;;;;;;;0.00;0.00;;;;;;;;;;6192425;23;20062;-85
2023/12/22 12:25:54;;;;;;;0.00;0.00;;;;;;;;;;6192651;23;20007;-82
2023/12/22 12:28:28;;;;;;;0.00;0.00;;;;;;;;;;6217551;23;20007;-84
2023/12/22 12:31:01;;;;;;;0.00;0.00;;;;;;;;;;6192978;23;20035;-86
2023/12/22 12:33:27;;;;;;;0.00;0.00;;;;;;;;;;6217540;23;20423;-74
2023/12/22 12:35:53;;;;;;;0.00;0.00;;;;;;;;;;6244634;23;20000;-74
2023/12/22 12:38:21;;;;;;;0.00;0.00;;;;;;;;;;6217219;23;20420;-74
2023/12/22 12:40:46;;;;;;;0.00;0.00;;;;;;;;;;6167550;23;20446;-76
2023/12/22 12:43:12;;;;;;;0.00;0.00;;;;;;;;;;6167272;23;20004;-76
2023/12/22 12:45:38;;;;;;;0.00;0.00;;;;;;;;;;6192162;23;20004;-75
2023/12/22 12:48:04;;;;;;;0.00;0.00;;;;;;;;;;6217237;23;20062;-75
2023/12/22 12:50:31;;;;;;;0.00;0.00;;;;;;;;;;6243823;23;20004;-76
2023/12/22 12:52:56;;;;;;;0.00;0.00;;;;;;;;;;6217332;23;20000;-86
2023/12/22 12:55:23;;;;;;;0.00;0.00;;;;;;;;;;6192634;23;20011;-90
2023/12/22 12:57:51;;;;;;;0.00;0.00;;;;;;;;;;6167196;23;20670;-87
2023/12/22 13:00:29;;;;;;;0.00;0.00;;;;;;;;;;6243995;23;20004;-86
2023/12/22 13:03:05;;;;;;;0.00;0.00;;;;;;;;;;6193017;23;20339;-87
2023/12/22 13:05:31;;;;;;;0.00;0.00;;;;;;;;;;6217028;23;20026;-86
2023/12/22 13:08:12;;;;;;;0.00;0.00;;;;;;;;;;6192081;23;20007;-87
2023/12/22 13:10:38;;;;;;;0.00;0.00;;;;;;;;;;6191988;23;20000;-87
2023/12/22 13:13:04;;;;;;;0.00;0.00;;;;;;;;;;6192041;23;20008;-87
2023/12/22 13:15:34;;;;;;;0.00;0.00;;;;;;;;;;6217489;23;20004;-86
2023/12/22 13:18:00;;;;;;;0.00;0.00;;;;;;;;;;6193094;23;20000;-87
2023/12/22 13:20:25;;;;;;;0.00;0.00;;;;;;;;;;6192887;23;20150;-86
2023/12/22 13:22:51;;;;;;;0.00;0.00;;;;;;;;;;6217002;23;20067;-86
2023/12/22 13:25:16;;;;;;;0.00;0.00;;;;;;;;;;6191810;23;20466;-86
2023/12/22 13:27:48;;;;;;;0.00;0.00;;;;;;;;;;6244155;23;20004;-86
2023/12/22 13:30:34;;;;;;;0.00;0.00;;;;;;;;;;6192389;23;20332;-87
2023/12/22 13:32:59;;;;;;;0.00;0.00;;;;;;;;;;6243457;22;20087;-87
2023/12/22 13:35:26;;;;;;;0.00;0.00;;;;;;;;;;6191796;23;20428;-87
2023/12/22 13:37:52;;;;;;;0.00;0.00;;;;;;;;;;6243674;23;20008;-88
2023/12/22 13:40:17;;;;;;;0.00;0.00;;;;;;;;;;6243239;23;20493;-87
2023/12/22 13:42:43;;;;;;;0.00;0.00;;;;;;;;;;6217106;23;20023;-87
2023/12/22 13:45:12;;;;;;;0.00;0.00;;;;;;;;;;6217033;23;20004;-87
2023/12/22 13:47:46;;;;;;;0.00;0.00;;;;;;;;;;6191834;23;20042;-85
2023/12/22 13:50:15;;;;;;;0.00;0.00;;;;;;;;;;6217259;23;20004;-82
2023/12/22 13:52:45;;;;;;;0.00;0.00;;;;;;;;;;6216780;23;20079;-83
2023/12/22 13:55:15;;;;;;;0.00;0.00;;;;;;;;;;6217151;23;20004;-90
2023/12/22 13:57:43;;;;;;;0.00;0.00;;;;;;;;;;6193162;23;20058;-90
2023/12/22 14:00:18;;;;;;;0.00;0.00;;;;;;;;;;6244247;23;20419;-89
2023/12/22 14:02:44;;;;;;;0.00;0.00;;;;;;;;;;6217047;23;20015;-88
2023/12/22 14:05:09;;;;;;;0.00;0.00;;;;;;;;;;6167938;23;20427;-90
2023/12/22 14:07:35;;;;;;;0.00;0.00;;;;;;;;;;6216000;23;20057;-92
2023/12/22 14:10:08;;;;;;;0.00;0.00;;;;;;;;;;6191190;23;20008;-90
2023/12/22 14:12:34;;;;;;;0.43;0.00;;;;;;;;;;6244160;23;20015;-89
2023/12/22 14:14:59;;;;;;;0.00;0.00;;;;;;;;;;6193347;23;20355;-91
2023/12/22 14:17:25;;;;;;;0.00;0.00;;;;;;;;;;6217614;23;20448;-91
2023/12/22 14:19:50;;;;;;;0.00;0.00;;;;;;;;;;6192603;23;20008;-92
2023/12/22 14:22:16;;;;;;;0.00;0.00;;;;;;;;;;6167723;23;20335;-89
2023/12/22 14:24:42;;;;;;;0.00;0.00;;;;;;;;;;6216890;23;20004;-89
2023/12/22 14:27:08;;;;;;;0.00;0.00;;;;;;;;;;6167307;23;20398;-90
2023/12/22 14:29:36;;;;;;;0.00;0.00;;;;;;;;;;6194729;23;20008;-88
2023/12/22 14:32:02;;;;;;;0.00;0.00;;;;;;;;;;6236134;22;20112;-89
2023/12/22 14:34:27;;;;;;;0.00;0.00;;;;;;;;;;6216078;23;20008;-91
2023/12/22 14:36:53;;;;;;;0.00;0.00;;;;;;;;;;6181359;23;20046;-91
2023/12/22 14:39:18;;;;;;;0.00;0.00;;;;;;;;;;6168735;23;20004;-90
2023/12/22 14:41:46;;;;;;;0.00;0.00;;;;;;;;;;6217315;23;20012;-90
2023/12/22 14:44:12;;;;;;;0.00;0.00;;;;;;;;;;6192880;23;20000;-82
2023/12/22 14:46:39;;;;;;;0.00;0.00;;;;;;;;;;6196630;23;20007;-95
2023/12/22 14:49:04;;;;;;;0.00;0.00;;;;;;;;;;6195773;23;20007;-94
2023/12/22 14:51:37;;;;;;;0.00;0.00;;;;;;;;;;6192055;23;20292;-82
2023/12/22 14:54:06;;;;;;;0.00;0.00;;;;;;;;;;6192114;23;20011;-83